Brewster, New York
Current Conditions -  °F | °C
As of 12:53 PM on Friday 21 Nov 2014 (Local Time) from KDXR Reporting Station
Scattered Clouds Scattered Clouds  
Wind Chill: 25°   Ceiling: Unl
Heat Index: 33°   Visibility: 10mi
Dew Point: 10°   Wind: 9mph
Humidity: 38%   Direction: 300°WNW
Pressure: 30.24"   Gusts: 22mph
Location:  41.4°N, 73.62°W
Report Text: KDXR 211753Z 30008G19KT 10SM SCT050 01/M12 A3024 RMK AO2 SLP244 T00061122 10006 21044 51005
Loading
Personal Weather Stations






























Interactive Weather Map New forecast layout! Learn more

10-Day Weather Forecast

Advertisements
Track Severe Weather on mobile